Nassau (NAS/MYNN)

Information

Location
Nassau, Bahamas
Local Time
23:55 / 11:55 pm
GMT Time
03:55 / 3:55 am
Gates
15
No FAA reported delays
METAR MYNN 170300Z 09003KT 9999 FEW018 30/25 A3009
TAF MYNN 162200Z 1700/1800 10003KT 9999 FEW015CB SCT050 BKN220 FM 171300 11008KT SCT018 SCT050 PROB30 TEMPO 1716/1721 SHRA SCT018CB